sensor_id;sensor_type;location;lat;lon;timestamp;temperature;humidity
59703;DHT22;45570;48.782;8.332;2023-03-30T08:49:43;12.80;99.90
59703;DHT22;45570;48.782;8.332;2023-03-30T08:52:22;13.10;99.90
59703;DHT22;45570;48.782;8.332;2023-03-30T08:55:14;13.20;99.90
59703;DHT22;45570;48.782;8.332;2023-03-30T08:58:15;13.70;99.90
59703;DHT22;45570;48.782;8.332;2023-03-30T09:01:06;14.00;99.90
59703;DHT22;45570;48.782;8.332;2023-03-30T09:03:48;14.20;99.90
59703;DHT22;45570;48.782;8.332;2023-03-30T09:06:51;14.40;99.90
59703;DHT22;45570;48.782;8.332;2023-03-30T09:09:31;14.70;99.90
59703;DHT22;45570;48.782;8.332;2023-03-30T09:12:39;14.80;99.90
59703;DHT22;45570;48.782;8.332;2023-03-30T09:15:33;14.90;99.90
59703;DHT22;45570;48.782;8.332;2023-03-30T09:18:13;14.90;99.90
59703;DHT22;45570;48.782;8.332;2023-03-30T09:20:45;14.90;99.90
59703;DHT22;45570;48.782;8.332;2023-03-30T09:23:16;14.90;99.90
59703;DHT22;45570;48.782;8.332;2023-03-30T09:25:49;14.70;99.90
59703;DHT22;45570;48.782;8.332;2023-03-30T09:28:32;14.60;99.90
59703;DHT22;45570;48.782;8.332;2023-03-30T09:31:07;14.50;99.90
59703;DHT22;45570;48.782;8.332;2023-03-30T09:33:44;14.50;99.90
59703;DHT22;45570;48.782;8.332;2023-03-30T09:36:16;14.40;99.90
59703;DHT22;45570;48.782;8.332;2023-03-30T09:38:47;14.40;99.90
59703;DHT22;45570;48.782;8.332;2023-03-30T09:41:35;14.30;99.90
59703;DHT22;45570;48.782;8.332;2023-03-30T09:44:18;14.20;99.90
59703;DHT22;45570;48.782;8.332;2023-03-30T09:46:52;14.20;99.90
59703;DHT22;45570;48.782;8.332;2023-03-30T09:49:27;14.00;99.90
59703;DHT22;45570;48.782;8.332;2023-03-30T09:52:02;14.00;99.90
59703;DHT22;45570;48.782;8.332;2023-03-30T09:54:36;14.00;99.90
59703;DHT22;45570;48.782;8.332;2023-03-30T09:57:23;13.90;99.90
59703;DHT22;45570;48.782;8.332;2023-03-30T09:59:53;13.80;99.90
59703;DHT22;45570;48.782;8.332;2023-03-30T10:02:27;13.60;99.90
59703;DHT22;45570;48.782;8.332;2023-03-30T10:05:01;13.70;99.90
59703;DHT22;45570;48.782;8.332;2023-03-30T10:07:33;13.90;99.90
59703;DHT22;45570;48.782;8.332;2023-03-30T10:10:14;14.10;99.90
59703;DHT22;45570;48.782;8.332;2023-03-30T10:13:07;14.20;99.90
59703;DHT22;45570;48.782;8.332;2023-03-30T10:15:44;14.20;99.90
59703;DHT22;45570;48.782;8.332;2023-03-30T10:18:27;14.10;99.90
59703;DHT22;45570;48.782;8.332;2023-03-30T10:21:02;14.00;99.90
59703;DHT22;45570;48.782;8.332;2023-03-30T10:23:34;14.00;99.90
59703;DHT22;45570;48.782;8.332;2023-03-30T10:26:11;13.90;99.90
59703;DHT22;45570;48.782;8.332;2023-03-30T10:28:51;13.80;99.90
59703;DHT22;45570;48.782;8.332;2023-03-30T10:31:21;13.60;99.90
59703;DHT22;45570;48.782;8.332;2023-03-30T10:33:57;13.40;99.90
59703;DHT22;45570;48.782;8.332;2023-03-30T10:36:29;13.30;99.90
59703;DHT22;45570;48.782;8.332;2023-03-30T10:39:09;13.30;99.90
59703;DHT22;45570;48.782;8.332;2023-03-30T10:41:40;13.40;99.90
59703;DHT22;45570;48.782;8.332;2023-03-30T10:44:18;13.50;99.90
59703;DHT22;45570;48.782;8.332;2023-03-30T10:46:50;13.60;99.90
59703;DHT22;45570;48.782;8.332;2023-03-30T10:49:45;13.60;99.90
59703;DHT22;45570;48.782;8.332;2023-03-30T10:52:49;13.70;99.90
59703;DHT22;45570;48.782;8.332;2023-03-30T10:55:31;13.90;99.90
59703;DHT22;45570;48.782;8.332;2023-03-30T10:58:10;14.00;99.90
59703;DHT22;45570;48.782;8.332;2023-03-30T11:00:53;14.10;99.90
59703;DHT22;45570;48.782;8.332;2023-03-30T11:03:26;14.10;99.90
59703;DHT22;45570;48.782;8.332;2023-03-30T11:06:05;14.20;99.90
59703;DHT22;45570;48.782;8.332;2023-03-30T11:08:40;14.20;99.90
59703;DHT22;45570;48.782;8.332;2023-03-30T11:11:14;14.20;99.90
59703;DHT22;45570;48.782;8.332;2023-03-30T11:13:46;14.20;99.90
59703;DHT22;45570;48.782;8.332;2023-03-30T11:16:20;14.30;99.90
59703;DHT22;45570;48.782;8.332;2023-03-30T11:18:54;14.30;99.90
59703;DHT22;45570;48.782;8.332;2023-03-30T11:21:32;14.80;99.90
59703;DHT22;45570;48.782;8.332;2023-03-30T11:24:08;15.50;99.90
59703;DHT22;45570;48.782;8.332;2023-03-30T11:26:44;15.70;99.90
59703;DHT22;45570;48.782;8.332;2023-03-30T11:29:26;15.80;99.90
59703;DHT22;45570;48.782;8.332;2023-03-30T11:32:07;16.10;99.90
59703;DHT22;45570;48.782;8.332;2023-03-30T11:34:49;16.10;99.90
59703;DHT22;45570;48.782;8.332;2023-03-30T11:37:26;16.10;99.90
59703;DHT22;45570;48.782;8.332;2023-03-30T11:40:03;16.30;99.90
59703;DHT22;45570;48.782;8.332;2023-03-30T11:42:38;16.40;99.90
59703;DHT22;45570;48.782;8.332;2023-03-30T11:48:27;16.80;99.90
59703;DHT22;45570;48.782;8.332;2023-03-30T11:51:10;16.50;99.90
59703;DHT22;45570;48.782;8.332;2023-03-30T11:53:51;16.30;99.90
59703;DHT22;45570;48.782;8.332;2023-03-30T11:56:28;16.00;99.90
59703;DHT22;45570;48.782;8.332;2023-03-30T11:59:02;16.00;99.90
59703;DHT22;45570;48.782;8.332;2023-03-30T12:04:38;16.00;99.90
59703;DHT22;45570;48.782;8.332;2023-03-30T12:07:19;16.10;99.90
59703;DHT22;45570;48.782;8.332;2023-03-30T12:09:55;16.20;99.90
59703;DHT22;45570;48.782;8.332;2023-03-30T12:12:33;16.30;99.90
59703;DHT22;45570;48.782;8.332;2023-03-30T12:15:14;16.20;99.90
59703;DHT22;45570;48.782;8.332;2023-03-30T12:17:52;16.10;99.90
59703;DHT22;45570;48.782;8.332;2023-03-30T12:20:39;16.00;99.90
59703;DHT22;45570;48.782;8.332;2023-03-30T12:23:32;16.20;99.90
59703;DHT22;45570;48.782;8.332;2023-03-30T12:26:31;16.60;99.90
59703;DHT22;45570;48.782;8.332;2023-03-30T12:29:17;17.30;99.90
59703;DHT22;45570;48.782;8.332;2023-03-30T12:32:26;17.60;99.90
59703;DHT22;45570;48.782;8.332;2023-03-30T12:34:56;17.60;99.90
59703;DHT22;45570;48.782;8.332;2023-03-30T12:37:30;17.80;99.90
59703;DHT22;45570;48.782;8.332;2023-03-30T12:40:13;17.90;99.90
59703;DHT22;45570;48.782;8.332;2023-03-30T12:42:51;18.30;99.90
59703;DHT22;45570;48.782;8.332;2023-03-30T12:45:29;18.70;99.90
59703;DHT22;45570;48.782;8.332;2023-03-30T12:48:21;18.70;99.90
59703;DHT22;45570;48.782;8.332;2023-03-30T12:51:00;18.70;99.90
59703;DHT22;45570;48.782;8.332;2023-03-30T12:53:52;18.80;99.90
59703;DHT22;45570;48.782;8.332;2023-03-30T12:56:29;18.70;99.90
59703;DHT22;45570;48.782;8.332;2023-03-30T12:59:47;18.80;99.90
59703;DHT22;45570;48.782;8.332;2023-03-30T13:05:35;18.80;99.90
59703;DHT22;45570;48.782;8.332;2023-03-30T13:08:09;18.60;99.90
59703;DHT22;45570;48.782;8.332;2023-03-30T13:10:44;18.50;99.90
59703;DHT22;45570;48.782;8.332;2023-03-30T13:13:22;18.80;99.90
59703;DHT22;45570;48.782;8.332;2023-03-30T13:15:54;19.00;99.90
59703;DHT22;45570;48.782;8.332;2023-03-30T13:18:32;19.20;99.90
59703;DHT22;45570;48.782;8.332;2023-03-30T13:21:15;19.30;99.90
59703;DHT22;45570;48.782;8.332;2023-03-30T13:23:59;19.40;99.90
59703;DHT22;45570;48.782;8.332;2023-03-30T13:26:40;19.60;99.90
59703;DHT22;45570;48.782;8.332;2023-03-30T13:29:11;19.40;99.90
59703;DHT22;45570;48.782;8.332;2023-03-30T13:31:51;19.10;99.90
59703;DHT22;45570;48.782;8.332;2023-03-30T13:37:42;18.80;99.90
59703;DHT22;45570;48.782;8.332;2023-03-30T13:40:18;18.60;99.90
59703;DHT22;45570;48.782;8.332;2023-03-30T13:43:13;18.20;99.90
59703;DHT22;45570;48.782;8.332;2023-03-30T13:45:49;17.40;99.90
59703;DHT22;45570;48.782;8.332;2023-03-30T13:48:50;17.00;99.90
59703;DHT22;45570;48.782;8.332;2023-03-30T13:51:25;16.90;99.90
59703;DHT22;45570;48.782;8.332;2023-03-30T13:53:58;16.70;99.90
59703;DHT22;45570;48.782;8.332;2023-03-30T13:56:29;16.50;99.90
59703;DHT22;45570;48.782;8.332;2023-03-30T13:59:03;16.30;99.90
59703;DHT22;45570;48.782;8.332;2023-03-30T14:01:34;16.20;99.90
59703;DHT22;45570;48.782;8.332;2023-03-30T14:04:10;16.00;99.90
59703;DHT22;45570;48.782;8.332;2023-03-30T14:06:42;15.70;99.90
59703;DHT22;45570;48.782;8.332;2023-03-30T14:09:16;15.20;99.90
59703;DHT22;45570;48.782;8.332;2023-03-30T14:11:49;14.70;99.90
59703;DHT22;45570;48.782;8.332;2023-03-30T14:14:23;14.40;99.90
59703;DHT22;45570;48.782;8.332;2023-03-30T14:16:55;14.20;99.90
59703;DHT22;45570;48.782;8.332;2023-03-30T14:19:29;14.20;99.90
59703;DHT22;45570;48.782;8.332;2023-03-30T14:22:02;14.30;99.90
59703;DHT22;45570;48.782;8.332;2023-03-30T14:24:36;14.40;99.90
59703;DHT22;45570;48.782;8.332;2023-03-30T14:27:11;14.70;99.90
59703;DHT22;45570;48.782;8.332;2023-03-30T14:29:43;14.90;99.90
59703;DHT22;45570;48.782;8.332;2023-03-30T14:32:14;15.00;99.90
59703;DHT22;45570;48.782;8.332;2023-03-30T14:34:47;15.10;99.90
59703;DHT22;45570;48.782;8.332;2023-03-30T14:37:18;15.00;99.90
59703;DHT22;45570;48.782;8.332;2023-03-30T14:39:51;14.90;99.90
59703;DHT22;45570;48.782;8.332;2023-03-30T14:42:25;14.90;99.90
59703;DHT22;45570;48.782;8.332;2023-03-30T14:44:56;14.70;99.90
59703;DHT22;45570;48.782;8.332;2023-03-30T14:47:26;14.40;99.90
59703;DHT22;45570;48.782;8.332;2023-03-30T14:49:58;14.00;99.90
59703;DHT22;45570;48.782;8.332;2023-03-30T14:52:32;13.70;99.90
59703;DHT22;45570;48.782;8.332;2023-03-30T14:55:02;13.30;99.90
59703;DHT22;45570;48.782;8.332;2023-03-30T14:57:36;13.30;99.90
59703;DHT22;45570;48.782;8.332;2023-03-30T15:00:10;13.40;99.90
59703;DHT22;45570;48.782;8.332;2023-03-30T15:02:50;13.50;99.90
59703;DHT22;45570;48.782;8.332;2023-03-30T15:05:23;13.80;99.90
59703;DHT22;45570;48.782;8.332;2023-03-30T15:07:54;14.10;99.90
59703;DHT22;45570;48.782;8.332;2023-03-30T15:10:26;14.40;99.90
59703;DHT22;45570;48.782;8.332;2023-03-30T15:12:57;14.60;99.90
59703;DHT22;45570;48.782;8.332;2023-03-30T15:15:34;14.70;99.90
59703;DHT22;45570;48.782;8.332;2023-03-30T15:18:06;14.60;99.90
59703;DHT22;45570;48.782;8.332;2023-03-30T15:20:43;14.70;99.90
59703;DHT22;45570;48.782;8.332;2023-03-30T15:23:12;14.60;99.90
59703;DHT22;45570;48.782;8.332;2023-03-30T15:26:02;14.50;99.90
59703;DHT22;45570;48.782;8.332;2023-03-30T15:28:36;14.50;99.90
59703;DHT22;45570;48.782;8.332;2023-03-30T15:31:10;14.30;99.90
59703;DHT22;45570;48.782;8.332;2023-03-30T15:33:42;14.20;99.90
59703;DHT22;45570;48.782;8.332;2023-03-30T15:36:17;14.00;99.90
59703;DHT22;45570;48.782;8.332;2023-03-30T15:38:48;13.90;99.90
59703;DHT22;45570;48.782;8.332;2023-03-30T15:41:21;13.80;99.90
59703;DHT22;45570;48.782;8.332;2023-03-30T15:43:59;13.70;99.90
59703;DHT22;45570;48.782;8.332;2023-03-30T15:46:37;13.60;99.90
59703;DHT22;45570;48.782;8.332;2023-03-30T15:49:08;13.50;99.90
59703;DHT22;45570;48.782;8.332;2023-03-30T15:51:42;13.50;99.90
59703;DHT22;45570;48.782;8.332;2023-03-30T15:54:14;13.40;99.90
59703;DHT22;45570;48.782;8.332;2023-03-30T15:56:47;13.40;99.90
59703;DHT22;45570;48.782;8.332;2023-03-30T15:59:20;13.30;99.90
59703;DHT22;45570;48.782;8.332;2023-03-30T16:01:53;13.50;99.90
59703;DHT22;45570;48.782;8.332;2023-03-30T16:04:23;13.70;99.90
59703;DHT22;45570;48.782;8.332;2023-03-30T16:06:54;13.90;99.90
59703;DHT22;45570;48.782;8.332;2023-03-30T16:09:23;14.00;99.90
59703;DHT22;45570;48.782;8.332;2023-03-30T16:11:53;14.10;99.90
59703;DHT22;45570;48.782;8.332;2023-03-30T16:14:22;14.20;99.90
59703;DHT22;45570;48.782;8.332;2023-03-30T16:16:53;14.20;99.90
59703;DHT22;45570;48.782;8.332;2023-03-30T16:19:22;14.10;99.90
59703;DHT22;45570;48.782;8.332;2023-03-30T16:21:51;14.00;99.90
59703;DHT22;45570;48.782;8.332;2023-03-30T16:24:22;14.00;99.90
59703;DHT22;45570;48.782;8.332;2023-03-30T16:26:51;13.90;99.90
59703;DHT22;45570;48.782;8.332;2023-03-30T16:29:22;13.90;99.90
59703;DHT22;45570;48.782;8.332;2023-03-30T16:31:51;13.90;99.90
59703;DHT22;45570;48.782;8.332;2023-03-30T16:34:21;13.90;99.90
59703;DHT22;45570;48.782;8.332;2023-03-30T16:36:51;13.80;99.90
59703;DHT22;45570;48.782;8.332;2023-03-30T16:39:25;13.70;99.90
59703;DHT22;45570;48.782;8.332;2023-03-30T16:41:55;13.70;99.90
59703;DHT22;45570;48.782;8.332;2023-03-30T16:44:24;13.60;99.90
59703;DHT22;45570;48.782;8.332;2023-03-30T16:46:53;13.40;99.90
59703;DHT22;45570;48.782;8.332;2023-03-30T16:49:24;13.30;99.90
59703;DHT22;45570;48.782;8.332;2023-03-30T16:51:54;13.30;99.90
59703;DHT22;45570;48.782;8.332;2023-03-30T16:54:26;13.20;99.90
59703;DHT22;45570;48.782;8.332;2023-03-30T16:57:00;13.10;99.90
59703;DHT22;45570;48.782;8.332;2023-03-30T16:59:30;13.00;99.90
59703;DHT22;45570;48.782;8.332;2023-03-30T17:02:00;12.90;99.90
59703;DHT22;45570;48.782;8.332;2023-03-30T17:04:30;12.70;99.90
59703;DHT22;45570;48.782;8.332;2023-03-30T17:06:59;12.60;99.90
59703;DHT22;45570;48.782;8.332;2023-03-30T17:09:30;12.60;99.90
59703;DHT22;45570;48.782;8.332;2023-03-30T17:11:59;12.40;99.90
59703;DHT22;45570;48.782;8.332;2023-03-30T17:14:28;12.40;99.90
59703;DHT22;45570;48.782;8.332;2023-03-30T17:16:58;12.20;99.90
59703;DHT22;45570;48.782;8.332;2023-03-30T17:19:28;12.20;99.90
59703;DHT22;45570;48.782;8.332;2023-03-30T17:21:57;12.00;99.90
59703;DHT22;45570;48.782;8.332;2023-03-30T17:24:27;12.00;99.90
59703;DHT22;45570;48.782;8.332;2023-03-30T17:26:58;11.90;99.90
59703;DHT22;45570;48.782;8.332;2023-03-30T17:29:28;11.90;99.90
59703;DHT22;45570;48.782;8.332;2023-03-30T17:31:57;11.90;99.90
59703;DHT22;45570;48.782;8.332;2023-03-30T17:34:27;12.10;99.90
59703;DHT22;45570;48.782;8.332;2023-03-30T17:36:57;12.00;99.90
59703;DHT22;45570;48.782;8.332;2023-03-30T17:39:26;12.00;99.90
59703;DHT22;45570;48.782;8.332;2023-03-30T17:41:59;12.00;99.90
59703;DHT22;45570;48.782;8.332;2023-03-30T17:44:29;11.90;99.90
59703;DHT22;45570;48.782;8.332;2023-03-30T17:46:59;11.90;99.90
59703;DHT22;45570;48.782;8.332;2023-03-30T17:49:28;11.90;99.90
59703;DHT22;45570;48.782;8.332;2023-03-30T17:51:57;11.80;99.90
59703;DHT22;45570;48.782;8.332;2023-03-30T17:54:27;11.80;99.90
59703;DHT22;45570;48.782;8.332;2023-03-30T17:56:59;12.10;99.90
59703;DHT22;45570;48.782;8.332;2023-03-30T17:59:28;12.70;99.90
59703;DHT22;45570;48.782;8.332;2023-03-30T18:01:58;12.90;99.90
59703;DHT22;45570;48.782;8.332;2023-03-30T18:04:27;13.00;99.90
59703;DHT22;45570;48.782;8.332;2023-03-30T18:06:57;13.10;99.90
59703;DHT22;45570;48.782;8.332;2023-03-30T18:09:26;13.20;99.90
59703;DHT22;45570;48.782;8.332;2023-03-30T18:11:55;13.40;99.90
59703;DHT22;45570;48.782;8.332;2023-03-30T18:14:26;13.30;99.90
59703;DHT22;45570;48.782;8.332;2023-03-30T18:16:55;13.10;99.90
59703;DHT22;45570;48.782;8.332;2023-03-30T18:19:33;13.00;99.90
59703;DHT22;45570;48.782;8.332;2023-03-30T18:22:02;12.70;99.90
59703;DHT22;45570;48.782;8.332;2023-03-30T18:24:33;12.50;99.90
59703;DHT22;45570;48.782;8.332;2023-03-30T18:27:02;12.30;99.90
59703;DHT22;45570;48.782;8.332;2023-03-30T18:29:33;12.20;99.90
59703;DHT22;45570;48.782;8.332;2023-03-30T18:32:04;12.00;99.90
59703;DHT22;45570;48.782;8.332;2023-03-30T18:34:33;11.80;99.90
59703;DHT22;45570;48.782;8.332;2023-03-30T18:37:02;11.70;99.90
59703;DHT22;45570;48.782;8.332;2023-03-30T18:39:31;11.60;99.90
59703;DHT22;45570;48.782;8.332;2023-03-30T18:42:00;11.60;99.90
59703;DHT22;45570;48.782;8.332;2023-03-30T18:44:30;11.60;99.90
59703;DHT22;45570;48.782;8.332;2023-03-30T18:47:01;11.60;99.90
59703;DHT22;45570;48.782;8.332;2023-03-30T18:49:30;11.50;99.90
59703;DHT22;45570;48.782;8.332;2023-03-30T18:52:00;11.40;99.90
59703;DHT22;45570;48.782;8.332;2023-03-30T18:54:29;11.20;99.90
59703;DHT22;45570;48.782;8.332;2023-03-30T18:56:59;11.20;99.90
59703;DHT22;45570;48.782;8.332;2023-03-30T18:59:28;11.10;99.90
59703;DHT22;45570;48.782;8.332;2023-03-30T19:01:58;11.10;99.90
59703;DHT22;45570;48.782;8.332;2023-03-30T19:04:29;11.00;99.90
59703;DHT22;45570;48.782;8.332;2023-03-30T19:06:59;11.00;99.90
59703;DHT22;45570;48.782;8.332;2023-03-30T19:09:28;11.00;99.90
59703;DHT22;45570;48.782;8.332;2023-03-30T19:12:11;10.90;99.90
59703;DHT22;45570;48.782;8.332;2023-03-30T19:14:41;10.80;99.90
59703;DHT22;45570;48.782;8.332;2023-03-30T19:17:11;10.80;99.90
59703;DHT22;45570;48.782;8.332;2023-03-30T19:19:46;10.80;99.90
59703;DHT22;45570;48.782;8.332;2023-03-30T19:22:17;10.60;99.90
59703;DHT22;45570;48.782;8.332;2023-03-30T19:24:48;10.60;99.90
59703;DHT22;45570;48.782;8.332;2023-03-30T19:27:18;10.60;99.90
59703;DHT22;45570;48.782;8.332;2023-03-30T19:29:48;10.50;99.90
59703;DHT22;45570;48.782;8.332;2023-03-30T19:32:19;10.40;99.90
59703;DHT22;45570;48.782;8.332;2023-03-30T19:34:51;10.40;99.90
59703;DHT22;45570;48.782;8.332;2023-03-30T19:37:22;10.50;99.90
59703;DHT22;45570;48.782;8.332;2023-03-30T19:39:52;10.50;99.90
59703;DHT22;45570;48.782;8.332;2023-03-30T19:42:23;10.60;99.90
59703;DHT22;45570;48.782;8.332;2023-03-30T19:44:54;10.60;99.90
59703;DHT22;45570;48.782;8.332;2023-03-30T19:47:25;10.50;99.90
59703;DHT22;45570;48.782;8.332;2023-03-30T19:50:00;10.50;99.90
59703;DHT22;45570;48.782;8.332;2023-03-30T19:52:31;10.40;99.90
59703;DHT22;45570;48.782;8.332;2023-03-30T19:55:00;10.40;99.90
59703;DHT22;45570;48.782;8.332;2023-03-30T19:57:30;10.40;99.90
59703;DHT22;45570;48.782;8.332;2023-03-30T19:59:59;10.30;99.90
59703;DHT22;45570;48.782;8.332;2023-03-30T20:02:32;10.20;99.90
59703;DHT22;45570;48.782;8.332;2023-03-30T20:05:06;10.20;99.90
59703;DHT22;45570;48.782;8.332;2023-03-30T20:07:37;10.10;99.90
59703;DHT22;45570;48.782;8.332;2023-03-30T20:10:09;9.90;99.90
59703;DHT22;45570;48.782;8.332;2023-03-30T20:12:39;9.70;99.90
59703;DHT22;45570;48.782;8.332;2023-03-30T20:15:10;9.70;99.90
59703;DHT22;45570;48.782;8.332;2023-03-30T20:17:42;9.60;99.90
59703;DHT22;45570;48.782;8.332;2023-03-30T20:20:15;9.60;99.90
59703;DHT22;45570;48.782;8.332;2023-03-30T20:22:53;9.60;99.90
59703;DHT22;45570;48.782;8.332;2023-03-30T20:25:23;9.70;99.90
59703;DHT22;45570;48.782;8.332;2023-03-30T20:27:52;9.80;99.90
59703;DHT22;45570;48.782;8.332;2023-03-30T20:30:22;9.80;99.90
59703;DHT22;45570;48.782;8.332;2023-03-30T20:32:51;9.80;99.90
59703;DHT22;45570;48.782;8.332;2023-03-30T20:35:36;9.70;99.90
59703;DHT22;45570;48.782;8.332;2023-03-30T20:38:06;9.70;99.90
59703;DHT22;45570;48.782;8.332;2023-03-30T20:40:35;9.80;99.90
59703;DHT22;45570;48.782;8.332;2023-03-30T20:43:04;9.90;99.90
59703;DHT22;45570;48.782;8.332;2023-03-30T20:45:37;10.00;99.90
59703;DHT22;45570;48.782;8.332;2023-03-30T20:48:13;9.90;99.90
59703;DHT22;45570;48.782;8.332;2023-03-30T20:50:55;9.80;99.90
59703;DHT22;45570;48.782;8.332;2023-03-30T20:53:24;9.80;99.90
59703;DHT22;45570;48.782;8.332;2023-03-30T20:55:53;9.80;99.90
59703;DHT22;45570;48.782;8.332;2023-03-30T20:58:23;9.90;99.90
59703;DHT22;45570;48.782;8.332;2023-03-30T21:00:56;10.00;99.90
59703;DHT22;45570;48.782;8.332;2023-03-30T21:03:26;10.10;99.90
59703;DHT22;45570;48.782;8.332;2023-03-30T21:06:04;10.10;99.90
59703;DHT22;45570;48.782;8.332;2023-03-30T21:08:34;10.20;99.90
59703;DHT22;45570;48.782;8.332;2023-03-30T21:11:03;10.20;99.90
59703;DHT22;45570;48.782;8.332;2023-03-30T21:13:34;10.10;99.90
59703;DHT22;45570;48.782;8.332;2023-03-30T21:16:05;10.20;99.90
59703;DHT22;45570;48.782;8.332;2023-03-30T21:18:34;10.20;99.90
59703;DHT22;45570;48.782;8.332;2023-03-30T21:21:05;10.20;99.90
59703;DHT22;45570;48.782;8.332;2023-03-30T21:23:34;10.10;99.90
59703;DHT22;45570;48.782;8.332;2023-03-30T21:26:06;10.20;99.90
59703;DHT22;45570;48.782;8.332;2023-03-30T21:28:36;10.40;99.90
59703;DHT22;45570;48.782;8.332;2023-03-30T21:31:07;10.70;99.90
59703;DHT22;45570;48.782;8.332;2023-03-30T21:33:36;11.00;99.90
59703;DHT22;45570;48.782;8.332;2023-03-30T21:36:08;11.00;99.90
59703;DHT22;45570;48.782;8.332;2023-03-30T21:38:38;11.00;99.90
59703;DHT22;45570;48.782;8.332;2023-03-30T21:41:09;11.10;99.90
59703;DHT22;45570;48.782;8.332;2023-03-30T21:43:41;11.60;99.90
59703;DHT22;45570;48.782;8.332;2023-03-30T21:46:13;11.70;99.90
59703;DHT22;45570;48.782;8.332;2023-03-30T21:48:43;11.50;99.90
59703;DHT22;45570;48.782;8.332;2023-03-30T21:51:16;11.50;99.90
59703;DHT22;45570;48.782;8.332;2023-03-30T21:53:48;11.50;99.90
59703;DHT22;45570;48.782;8.332;2023-03-30T21:56:18;11.50;99.90
59703;DHT22;45570;48.782;8.332;2023-03-30T21:58:49;11.50;99.90
59703;DHT22;45570;48.782;8.332;2023-03-30T22:04:22;11.90;99.90
59703;DHT22;45570;48.782;8.332;2023-03-30T22:06:52;11.90;99.90
59703;DHT22;45570;48.782;8.332;2023-03-30T22:09:21;11.70;99.90
59703;DHT22;45570;48.782;8.332;2023-03-30T22:11:50;11.50;99.90
59703;DHT22;45570;48.782;8.332;2023-03-30T22:14:22;11.50;99.90
59703;DHT22;45570;48.782;8.332;2023-03-30T22:16:51;11.50;99.90
59703;DHT22;45570;48.782;8.332;2023-03-30T22:19:20;11.50;99.90
59703;DHT22;45570;48.782;8.332;2023-03-30T22:21:52;11.40;99.90
59703;DHT22;45570;48.782;8.332;2023-03-30T22:24:21;11.40;99.90
59703;DHT22;45570;48.782;8.332;2023-03-30T22:26:50;11.20;99.90
59703;DHT22;45570;48.782;8.332;2023-03-30T22:29:19;11.20;99.90
59703;DHT22;45570;48.782;8.332;2023-03-30T22:31:49;11.20;99.90
59703;DHT22;45570;48.782;8.332;2023-03-30T22:34:22;11.20;99.90
59703;DHT22;45570;48.782;8.332;2023-03-30T22:36:52;11.10;99.90
59703;DHT22;45570;48.782;8.332;2023-03-30T22:39:21;11.00;99.90
59703;DHT22;45570;48.782;8.332;2023-03-30T22:41:51;11.00;99.90
